Time,TemperatureF,DewpointF,PressureIn,WindDirection,WindDirectionDegrees,WindSpeedMPH,WindSpeedGustMPH,Humidity,HourlyPrecipIn,Conditions,Clouds,dailyrainin,SoftwareType,DateUTC
2013-04-08 00:03:00,41.0,39.4,29.86,South,180,5.0,5.0,94,0.00,RA,,0.00,WeatherDisplay:10.37,2013-04-08 07:03:00,
2013-04-08 00:08:00,41.1,39.5,29.86,SSE,163,5.8,5.8,94,0.00,RA,,0.00,WeatherDisplay:10.37,2013-04-08 07:08:00,
2013-04-08 00:13:00,41.1,39.5,29.86,South,183,5.8,5.8,94,0.00,CLR,,0.00,WeatherDisplay:10.37,2013-04-08 07:13:00,
2013-04-08 00:18:00,41.2,39.6,29.86,SSE,149,3.5,3.5,94,0.00,CLR,,0.00,WeatherDisplay:10.37,2013-04-08 07:18:00,
2013-04-08 00:23:00,41.2,39.6,29.86,South,183,6.9,6.9,94,0.00,CLR,,0.00,WeatherDisplay:10.37,2013-04-08 07:23:00,
2013-04-08 00:28:00,41.3,39.7,29.87,SSE,156,5.8,5.8,94,0.00,CLR,,0.00,WeatherDisplay:10.37,2013-04-08 07:28:00,
2013-04-08 00:34:00,41.3,39.7,29.87,SE,145,5.8,5.8,94,0.00,CLR,,0.00,WeatherDisplay:10.37,2013-04-08 07:34:00,
2013-04-08 00:39:00,41.3,39.7,29.87,South,173,6.0,6.0,94,0.00,CLR,,0.00,WeatherDisplay:10.37,2013-04-08 07:39:00,
2013-04-08 00:44:00,41.2,39.6,29.87,SSE,159,5.8,5.8,94,0.00,CLR,,0.00,WeatherDisplay:10.37,2013-04-08 07:44:00,
2013-04-08 00:49:00,41.2,39.9,29.88,SW,214,3.5,3.5,95,0.01,RA,,0.01,WeatherDisplay:10.37,2013-04-08 07:49:00,
2013-04-08 00:54:00,41.2,39.6,29.88,SSE,161,3.5,0.0,94,0.01,RA,,0.01,WeatherDisplay:10.37,2013-04-08 07:54:00,
2013-04-08 00:59:00,41.2,39.9,29.88,South,186,4.0,4.0,95,0.01,,,0.01,WeatherDisplay:10.37,2013-04-08 07:59:00,
2013-04-08 01:04:00,41.2,39.9,29.88,SSE,159,5.8,5.8,95,0.01,CLR,,0.01,WeatherDisplay:10.37,2013-04-08 08:04:00,
2013-04-08 01:09:00,41.2,39.9,29.89,SE,141,5.8,5.8,95,0.01,CLR,,0.01,WeatherDisplay:10.37,2013-04-08 08:09:00,
2013-04-08 01:14:00,41.2,39.9,29.89,SE,146,3.5,3.5,95,0.01,CLR,,0.01,WeatherDisplay:10.37,2013-04-08 08:14:00,
2013-04-08 01:19:00,41.3,40.0,29.89,SSE,155,7.0,7.0,95,0.01,CLR,,0.01,WeatherDisplay:10.37,2013-04-08 08:19:00,
2013-04-08 01:24:00,41.3,40.0,29.89,SE,144,3.5,3.5,95,0.01,CLR,,0.01,WeatherDisplay:10.37,2013-04-08 08:24:00,
2013-04-08 01:30:00,41.3,40.0,29.89,South,169,2.0,6.0,95,0.00,CLR,,0.01,WeatherDisplay:10.37,2013-04-08 08:30:00,
2013-04-08 01:34:00,41.3,40.0,29.89,SSE,163,5.0,6.0,95,0.00,CLR,,0.01,WeatherDisplay:10.37,2013-04-08 08:34:00,
2013-04-08 01:39:00,41.3,40.0,29.90,SSE,168,3.0,7.0,95,0.00,CLR,,0.01,WeatherDisplay:10.37,2013-04-08 08:39:00,
2013-04-08 01:45:00,41.4,40.1,29.90,SSE,165,3.5,3.5,95,0.01,CLR,,0.01,WeatherDisplay:10.37,2013-04-08 08:45:00,
2013-04-08 01:49:00,41.4,40.1,29.90,SSE,160,2.0,6.0,95,0.00,CLR,,0.01,WeatherDisplay:10.37,2013-04-08 08:49:00,
2013-04-08 01:54:00,41.4,40.1,29.90,SSE,165,2.0,5.0,95,0.00,CLR,,0.01,WeatherDisplay:10.37,2013-04-08 08:54:00,
2013-04-08 02:00:00,41.4,40.1,29.90,SSE,161,5.8,5.8,95,0.00,CLR,,0.01,WeatherDisplay:10.37,2013-04-08 09:00:00,
2013-04-08 02:04:00,41.4,40.1,29.90,SSE,168,2.0,5.0,95,0.00,CLR,,0.01,WeatherDisplay:10.37,2013-04-08 09:04:00,
2013-04-08 02:09:00,41.4,40.1,29.90,SSE,165,3.0,10.0,95,0.00,CLR,,0.01,WeatherDisplay:10.37,2013-04-08 09:09:00,
2013-04-08 02:15:00,41.4,40.1,29.90,SSE,168,1.0,10.0,95,0.00,CLR,,0.01,WeatherDisplay:10.37,2013-04-08 09:15:00,
2013-04-08 02:19:00,41.5,40.1,29.90,South,169,2.0,10.0,95,0.00,CLR,,0.01,WeatherDisplay:10.37,2013-04-08 09:19:00,
2013-04-08 02:24:00,41.5,40.2,29.91,SSE,165,1.0,10.0,95,0.00,CLR,,0.01,WeatherDisplay:10.37,2013-04-08 09:24:00,
2013-04-08 02:30:00,41.5,40.2,29.90,SSE,165,3.0,10.0,95,0.00,CLR,,0.01,WeatherDisplay:10.37,2013-04-08 09:30:00,
2013-04-08 02:35:00,41.5,40.2,29.91,SSE,168,2.3,2.3,95,0.01,RA,,0.02,WeatherDisplay:10.37,2013-04-08 09:35:00,
2013-04-08 02:40:00,41.5,40.2,29.91,South,177,3.5,3.5,95,0.01,RA,,0.02,WeatherDisplay:10.37,2013-04-08 09:40:00,
2013-04-08 02:45:00,41.5,40.2,29.91,SSE,154,2.3,2.3,95,0.01,CLR,,0.02,WeatherDisplay:10.37,2013-04-08 09:45:00,
2013-04-08 02:50:00,41.5,40.2,29.91,SE,127,4.6,4.6,95,0.01,CLR,,0.02,WeatherDisplay:10.37,2013-04-08 09:50:00,
2013-04-08 02:55:00,41.5,40.2,29.91,South,169,3.5,3.5,95,0.01,CLR,,0.02,WeatherDisplay:10.37,2013-04-08 09:55:00,
2013-04-08 03:00:00,41.5,40.2,29.91,SSE,164,5.8,5.8,95,0.01,CLR,,0.02,WeatherDisplay:10.37,2013-04-08 10:00:00,
2013-04-08 03:05:00,41.4,40.1,29.92,SSE,166,4.6,4.6,95,0.01,CLR,,0.02,WeatherDisplay:10.37,2013-04-08 10:05:00,
2013-04-08 03:10:00,41.4,40.1,29.92,South,172,10.0,10.0,95,0.01,CLR,,0.02,WeatherDisplay:10.37,2013-04-08 10:10:00,
2013-04-08 03:15:00,41.4,40.1,29.92,South,169,3.5,3.6,95,0.01,CLR,,0.02,WeatherDisplay:10.37,2013-04-08 10:15:00,
2013-04-08 03:20:00,41.4,40.1,29.92,SSW,192,6.0,6.0,95,0.01,CLR,,0.02,WeatherDisplay:10.37,2013-04-08 10:20:00,
2013-04-08 03:25:00,41.4,40.3,29.92,South,179,3.5,3.5,96,0.01,CLR,,0.02,WeatherDisplay:10.37,2013-04-08 10:25:00,
2013-04-08 03:30:00,41.4,40.3,29.92,SSE,167,5.8,5.8,96,0.01,CLR,,0.02,WeatherDisplay:10.37,2013-04-08 10:30:00,
2013-04-08 03:35:00,41.4,40.3,29.92,SSW,197,5.8,5.8,96,0.00,CLR,,0.02,WeatherDisplay:10.37,2013-04-08 10:35:00,
2013-04-08 03:40:00,41.4,40.3,29.92,SSE,167,5.8,5.8,96,0.00,CLR,,0.02,WeatherDisplay:10.37,2013-04-08 10:40:00,
2013-04-08 03:45:00,41.4,40.3,29.92,SSE,167,3.0,3.0,96,0.00,CLR,,0.02,WeatherDisplay:10.37,2013-04-08 10:45:00,
2013-04-08 03:51:00,41.4,40.3,29.93,South,191,6.9,6.9,96,0.00,CLR,,0.02,WeatherDisplay:10.37,2013-04-08 10:51:00,
2013-04-08 03:56:00,41.4,40.3,29.93,SSE,154,3.5,3.5,96,0.00,CLR,,0.02,WeatherDisplay:10.37,2013-04-08 10:56:00,
2013-04-08 04:01:00,41.4,40.3,29.93,South,169,3.5,3.5,96,0.00,CLR,,0.02,WeatherDisplay:10.37,2013-04-08 11:01:00,
2013-04-08 04:06:00,41.4,40.3,29.93,South,170,3.5,3.5,96,0.00,CLR,,0.02,WeatherDisplay:10.37,2013-04-08 11:06:00,
2013-04-08 04:11:00,41.5,40.4,29.93,South,178,3.5,3.5,96,0.00,CLR,,0.02,WeatherDisplay:10.37,2013-04-08 11:11:00,
2013-04-08 04:16:00,41.5,40.4,29.94,SE,132,4.6,4.6,96,0.00,CLR,,0.02,WeatherDisplay:10.37,2013-04-08 11:16:00,
2013-04-08 04:21:00,41.5,40.4,29.94,SSE,163,3.5,3.5,96,0.00,CLR,,0.02,WeatherDisplay:10.37,2013-04-08 11:21:00,
2013-04-08 04:26:00,41.5,40.4,29.94,SSE,162,3.5,3.5,96,0.00,CLR,,0.02,WeatherDisplay:10.37,2013-04-08 11:26:00,
2013-04-08 04:31:00,41.6,40.5,29.95,ESE,118,6.0,6.0,96,0.00,CLR,,0.02,WeatherDisplay:10.37,2013-04-08 11:31:00,
2013-04-08 04:36:00,41.6,40.5,29.95,South,182,5.0,5.0,96,0.00,CLR,,0.02,WeatherDisplay:10.37,2013-04-08 11:36:00,
2013-04-08 04:41:00,41.6,40.5,29.95,SE,145,4.0,4.0,96,0.00,CLR,,0.02,WeatherDisplay:10.37,2013-04-08 11:41:00,
2013-04-08 04:46:00,41.6,40.5,29.95,SE,138,6.0,6.0,96,0.00,CLR,,0.02,WeatherDisplay:10.37,2013-04-08 11:46:00,
2013-04-08 04:52:00,41.6,40.5,29.95,SE,126,6.9,6.9,96,0.00,CLR,,0.02,WeatherDisplay:10.37,2013-04-08 11:52:00,
2013-04-08 04:57:00,41.5,40.4,29.96,South,169,4.6,4.6,96,0.00,CLR,,0.02,WeatherDisplay:10.37,2013-04-08 11:57:00,
2013-04-08 05:02:00,41.5,40.4,29.96,SSE,157,5.8,5.8,96,0.00,CLR,,0.02,WeatherDisplay:10.37,2013-04-08 12:02:00,
2013-04-08 05:07:00,41.5,40.4,29.97,SSE,154,2.3,2.3,96,0.00,CLR,,0.02,WeatherDisplay:10.37,2013-04-08 12:07:00,
2013-04-08 05:12:00,41.4,40.3,29.97,SSE,168,5.0,5.0,96,0.00,CLR,,0.02,WeatherDisplay:10.37,2013-04-08 12:12:00,
2013-04-08 05:17:00,41.4,40.3,29.97,SSE,160,4.0,4.0,96,0.00,CLR,,0.02,WeatherDisplay:10.37,2013-04-08 12:17:00,
2013-04-08 05:22:00,41.5,40.4,29.97,South,176,8.1,8.1,96,0.00,CLR,,0.02,WeatherDisplay:10.37,2013-04-08 12:22:00,
2013-04-08 05:27:00,41.4,40.3,29.97,SE,131,3.5,3.5,96,0.00,CLR,,0.02,WeatherDisplay:10.37,2013-04-08 12:27:00,
2013-04-08 05:32:00,41.4,40.3,29.97,South,181,4.6,4.6,96,0.00,CLR,,0.02,WeatherDisplay:10.37,2013-04-08 12:32:00,
2013-04-08 05:37:00,41.4,40.3,29.98,South,176,4.0,4.0,96,0.00,CLR,,0.02,WeatherDisplay:10.37,2013-04-08 12:37:00,
2013-04-08 05:42:00,41.4,40.3,29.98,South,175,4.6,4.6,96,0.00,CLR,,0.02,WeatherDisplay:10.37,2013-04-08 12:42:00,
2013-04-08 05:47:00,41.4,40.3,29.98,SSE,158,4.6,4.6,96,0.00,CLR,,0.02,WeatherDisplay:10.37,2013-04-08 12:47:00,
2013-04-08 05:52:00,41.5,40.4,29.99,South,169,3.5,3.5,96,0.00,CLR,,0.02,WeatherDisplay:10.37,2013-04-08 12:52:00,
2013-04-08 05:57:00,41.5,40.4,29.99,South,170,2.0,2.0,96,0.00,CLR,,0.02,WeatherDisplay:10.37,2013-04-08 12:57:00,
2013-04-08 06:02:00,41.5,40.4,29.99,SSE,149,8.1,8.1,96,0.00,CLR,,0.02,WeatherDisplay:10.37,2013-04-08 13:02:00,
2013-04-08 06:07:00,41.5,40.4,30.00,SSE,165,9.2,9.2,96,0.00,CLR,,0.02,WeatherDisplay:10.37,2013-04-08 13:07:00,
2013-04-08 06:12:00,41.5,40.2,30.00,SE,145,3.5,3.5,95,0.00,CLR,,0.02,WeatherDisplay:10.37,2013-04-08 13:12:00,
2013-04-08 06:17:00,41.5,40.2,30.00,SSE,150,7.0,7.0,95,0.00,CLR,,0.02,WeatherDisplay:10.37,2013-04-08 13:17:00,
2013-04-08 06:22:00,41.5,40.2,30.00,SSE,167,8.1,8.1,95,0.00,CLR,,0.02,WeatherDisplay:10.37,2013-04-08 13:22:00,
2013-04-08 06:27:00,41.5,40.2,30.00,SSE,161,3.5,3.5,95,0.00,CLR,,0.02,WeatherDisplay:10.37,2013-04-08 13:27:00,
2013-04-08 06:32:00,41.5,40.2,30.01,SSW,193,4.0,4.0,95,0.00,CLR,,0.02,WeatherDisplay:10.37,2013-04-08 13:32:00,
2013-04-08 06:37:00,41.6,40.3,30.01,South,169,4.6,4.6,95,0.00,CLR,,0.02,WeatherDisplay:10.37,2013-04-08 13:37:00,
2013-04-08 06:43:00,41.6,40.3,30.01,SSE,159,6.0,6.0,95,0.00,CLR,,0.02,WeatherDisplay:10.37,2013-04-08 13:43:00,
2013-04-08 06:48:00,41.6,40.3,30.02,SSE,148,3.5,3.5,95,0.00,CLR,,0.02,WeatherDisplay:10.37,2013-04-08 13:48:00,
2013-04-08 06:53:00,41.6,40.3,30.02,SSE,157,2.3,2.3,95,0.00,CLR,,0.02,WeatherDisplay:10.37,2013-04-08 13:53:00,
2013-04-08 06:58:00,41.7,40.4,30.02,SSE,157,3.5,3.5,95,0.00,CLR,,0.02,WeatherDisplay:10.37,2013-04-08 13:58:00,
2013-04-08 07:03:00,41.7,40.4,30.02,SSE,167,2.3,2.3,95,0.00,CLR,,0.02,WeatherDisplay:10.37,2013-04-08 14:03:00,
2013-04-08 07:08:00,41.8,40.5,30.02,SSE,156,3.5,3.5,95,0.00,CLR,,0.02,WeatherDisplay:10.37,2013-04-08 14:08:00,
2013-04-08 07:13:00,41.8,40.5,30.03,South,183,1.2,0.0,95,0.00,CLR,,0.02,WeatherDisplay:10.37,2013-04-08 14:13:00,
2013-04-08 07:18:00,41.9,40.6,30.03,SE,135,3.5,3.5,95,0.00,CLR,,0.02,WeatherDisplay:10.37,2013-04-08 14:18:00,
2013-04-08 07:23:00,41.8,40.5,30.03,SSE,164,2.3,2.3,95,0.00,CLR,,0.02,WeatherDisplay:10.37,2013-04-08 14:23:00,
2013-04-08 07:28:00,41.9,40.6,30.03,SSW,192,4.6,4.6,95,0.00,CLR,,0.02,WeatherDisplay:10.37,2013-04-08 14:28:00,
2013-04-08 07:33:00,41.9,40.6,30.03,SE,142,3.5,3.5,95,0.00,CLR,,0.02,WeatherDisplay:10.37,2013-04-08 14:33:00,
2013-04-08 07:38:00,41.9,40.6,30.03,SSE,155,3.5,3.5,95,0.00,CLR,,0.02,WeatherDisplay:10.37,2013-04-08 14:38:00,
2013-04-08 07:43:00,41.9,40.6,30.03,South,178,3.5,3.5,95,0.00,CLR,,0.02,WeatherDisplay:10.37,2013-04-08 14:43:00,
2013-04-08 07:48:00,42.0,40.7,30.04,SSW,196,4.0,4.0,95,0.00,CLR,,0.02,WeatherDisplay:10.37,2013-04-08 14:48:00,
2013-04-08 07:53:00,42.0,40.7,30.04,South,176,4.6,4.6,95,0.00,CLR,,0.02,WeatherDisplay:10.37,2013-04-08 14:53:00,
2013-04-08 07:58:00,42.0,40.7,30.04,SE,146,4.0,4.0,95,0.00,CLR,,0.02,WeatherDisplay:10.37,2013-04-08 14:58:00,
2013-04-08 08:03:00,42.1,40.8,30.04,South,187,3.5,3.5,95,0.00,CLR,,0.02,WeatherDisplay:10.37,2013-04-08 15:03:00,
2013-04-08 08:08:00,42.1,40.8,30.04,SSE,161,5.8,5.8,95,0.00,CLR,,0.02,WeatherDisplay:10.37,2013-04-08 15:08:00,
2013-04-08 08:13:00,42.2,40.9,30.05,SSE,157,3.5,3.5,95,0.00,CLR,,0.02,WeatherDisplay:10.37,2013-04-08 15:13:00,
2013-04-08 08:18:00,42.2,40.9,30.05,SE,146,3.5,3.5,95,0.00,CLR,,0.02,WeatherDisplay:10.37,2013-04-08 15:18:00,
2013-04-08 08:23:00,42.2,40.9,30.05,South,170,3.5,3.5,95,0.00,CLR,,0.02,WeatherDisplay:10.37,2013-04-08 15:23:00,
2013-04-08 08:28:00,42.2,40.9,30.05,SSE,165,3.5,3.5,95,0.00,CLR,,0.02,WeatherDisplay:10.37,2013-04-08 15:28:00,
2013-04-08 08:33:00,42.3,41.0,30.05,SE,134,3.5,3.5,95,0.00,CLR,,0.02,WeatherDisplay:10.37,2013-04-08 15:33:00,
2013-04-08 08:38:00,42.3,41.0,30.06,SSE,164,6.9,6.9,95,0.00,CLR,,0.02,WeatherDisplay:10.37,2013-04-08 15:38:00,
2013-04-08 08:43:00,42.3,41.0,30.06,SSE,167,3.5,3.5,95,0.00,CLR,,0.02,WeatherDisplay:10.37,2013-04-08 15:43:00,
2013-04-08 08:48:00,42.3,41.0,30.06,ESE,123,5.8,5.8,95,0.01,RA,,0.03,WeatherDisplay:10.37,2013-04-08 15:48:00,
2013-04-08 08:53:00,42.3,41.0,30.06,SSE,165,4.6,4.6,95,0.01,RA,,0.03,WeatherDisplay:10.37,2013-04-08 15:53:00,
2013-04-08 08:58:00,42.3,41.0,30.06,South,169,3.5,3.5,95,0.02,RA,,0.04,WeatherDisplay:10.37,2013-04-08 15:58:00,
2013-04-08 09:03:00,42.4,41.1,30.06,South,171,5.8,5.8,95,0.02,RA,,0.04,WeatherDisplay:10.37,2013-04-08 16:03:00,
2013-04-08 09:08:00,42.4,41.3,30.06,SSE,161,4.6,4.6,96,0.02,CLR,,0.04,WeatherDisplay:10.37,2013-04-08 16:08:00,
2013-04-08 09:13:00,42.5,41.4,30.06,SSE,168,2.3,2.3,96,0.02,CLR,,0.04,WeatherDisplay:10.37,2013-04-08 16:13:00,
2013-04-08 09:18:00,42.6,41.5,30.07,SSW,209,3.5,3.5,96,0.02,CLR,,0.04,WeatherDisplay:10.37,2013-04-08 16:18:00,
2013-04-08 09:23:00,42.6,41.3,30.07,SSE,163,3.5,3.5,95,0.02,CLR,,0.04,WeatherDisplay:10.37,2013-04-08 16:23:00,
2013-04-08 09:28:00,42.6,41.3,30.07,SSE,155,3.5,3.5,95,0.02,CLR,,0.04,WeatherDisplay:10.37,2013-04-08 16:28:00,
2013-04-08 09:33:00,42.7,41.4,30.07,SSE,148,3.5,3.5,95,0.02,CLR,,0.04,WeatherDisplay:10.37,2013-04-08 16:33:00,
2013-04-08 09:38:00,42.7,41.4,30.07,South,188,5.8,5.8,95,0.02,CLR,,0.04,WeatherDisplay:10.37,2013-04-08 16:38:00,
2013-04-08 09:43:00,42.7,41.4,30.07,South,176,2.3,2.3,95,0.02,CLR,,0.04,WeatherDisplay:10.37,2013-04-08 16:43:00,
2013-04-08 09:48:00,42.8,41.5,30.07,SE,140,3.5,3.5,95,0.01,CLR,,0.04,WeatherDisplay:10.37,2013-04-08 16:48:00,
2013-04-08 09:53:00,42.9,41.6,30.07,South,169,3.5,3.5,95,0.01,CLR,,0.04,WeatherDisplay:10.37,2013-04-08 16:53:00,
2013-04-08 09:58:00,42.9,41.8,30.07,SSW,206,4.6,4.6,96,0.00,CLR,,0.04,WeatherDisplay:10.37,2013-04-08 16:58:00,
2013-04-08 10:03:00,42.9,41.6,30.08,South,188,4.6,4.6,95,0.00,CLR,,0.04,WeatherDisplay:10.37,2013-04-08 17:03:00,
2013-04-08 10:08:00,43.0,41.7,30.08,SSW,203,4.6,4.6,95,0.00,CLR,,0.04,WeatherDisplay:10.37,2013-04-08 17:08:00,
2013-04-08 10:13:00,42.9,41.6,30.08,South,185,5.8,5.8,95,0.00,CLR,,0.04,WeatherDisplay:10.37,2013-04-08 17:13:00,
2013-04-08 10:18:00,43.0,41.7,30.08,South,180,6.9,6.9,95,0.00,CLR,,0.04,WeatherDisplay:10.37,2013-04-08 17:18:00,
2013-04-08 10:23:00,43.1,41.8,30.08,South,177,5.0,5.0,95,0.00,CLR,,0.04,WeatherDisplay:10.37,2013-04-08 17:23:00,
2013-04-08 10:28:00,43.1,41.8,30.08,SE,140,5.8,5.8,95,0.00,CLR,,0.04,WeatherDisplay:10.37,2013-04-08 17:28:00,
2013-04-08 10:33:00,43.0,41.7,30.09,South,189,6.9,6.9,95,0.00,CLR,,0.04,WeatherDisplay:10.37,2013-04-08 17:33:00,
2013-04-08 10:38:00,43.1,41.8,30.09,SSE,154,5.8,5.8,95,0.00,CLR,,0.04,WeatherDisplay:10.37,2013-04-08 17:38:00,
2013-04-08 10:43:00,43.1,41.8,30.09,SSE,167,3.5,3.5,95,0.00,CLR,,0.04,WeatherDisplay:10.37,2013-04-08 17:43:00,
2013-04-08 10:48:00,43.1,41.8,30.10,SSE,153,5.8,5.8,95,0.00,CLR,,0.04,WeatherDisplay:10.37,2013-04-08 17:48:00,
2013-04-08 10:54:00,43.0,41.7,30.10,ESE,103,7.0,7.0,95,0.00,CLR,,0.04,WeatherDisplay:10.37,2013-04-08 17:54:00,
2013-04-08 10:59:00,43.1,41.8,30.10,South,187,4.6,4.6,95,0.00,CLR,,0.04,WeatherDisplay:10.37,2013-04-08 17:59:00,
2013-04-08 11:04:00,43.2,41.9,30.10,SE,145,3.5,3.5,95,0.00,CLR,,0.04,WeatherDisplay:10.37,2013-04-08 18:04:00,
2013-04-08 11:09:00,43.4,42.1,30.10,SSE,158,3.0,10.0,95,0.00,CLR,,0.04,WeatherDisplay:10.37,2013-04-08 18:09:00,
2013-04-08 11:14:00,43.4,42.1,30.10,South,174,5.8,5.8,95,0.00,CLR,,0.04,WeatherDisplay:10.37,2013-04-08 18:14:00,
2013-04-08 11:19:00,43.4,42.1,30.11,SSE,163,5.0,10.0,95,0.00,CLR,,0.04,WeatherDisplay:10.37,2013-04-08 18:19:00,
2013-04-08 11:24:00,43.5,42.2,30.11,SSE,155,2.0,10.0,95,0.00,CLR,,0.04,WeatherDisplay:10.37,2013-04-08 18:24:00,
2013-04-08 11:29:00,43.7,42.4,30.11,SSE,162,5.0,5.0,95,0.00,CLR,,0.04,WeatherDisplay:10.37,2013-04-08 18:29:00,
2013-04-08 11:34:00,43.7,42.4,30.11,SSE,159,2.0,10.0,95,0.00,CLR,,0.04,WeatherDisplay:10.37,2013-04-08 18:34:00,
2013-04-08 11:40:00,43.7,42.1,30.12,SSE,160,2.0,10.0,94,0.00,CLR,,0.04,WeatherDisplay:10.37,2013-04-08 18:40:00,
2013-04-08 11:45:00,43.7,42.4,30.12,SSE,152,6.9,6.9,95,0.00,CLR,,0.04,WeatherDisplay:10.37,2013-04-08 18:45:00,
2013-04-08 11:50:00,43.7,42.1,30.12,South,174,6.9,6.9,94,0.00,CLR,,0.04,WeatherDisplay:10.37,2013-04-08 18:50:00,
2013-04-08 11:55:00,43.6,42.3,30.12,SE,146,8.1,8.1,95,0.00,CLR,,0.04,WeatherDisplay:10.37,2013-04-08 18:55:00,
2013-04-08 12:00:00,43.8,42.5,30.13,SSE,150,6.0,6.0,95,0.00,CLR,,0.04,WeatherDisplay:10.37,2013-04-08 19:00:00,
2013-04-08 12:05:00,43.9,42.6,30.13,SSE,166,6.9,6.9,95,0.00,CLR,,0.04,WeatherDisplay:10.37,2013-04-08 19:05:00,
2013-04-08 12:10:00,44.1,42.8,30.13,SSE,165,6.0,6.0,95,0.00,CLR,,0.04,WeatherDisplay:10.37,2013-04-08 19:10:00,
2013-04-08 12:15:00,44.1,42.5,30.13,South,186,5.0,5.0,94,0.00,CLR,,0.04,WeatherDisplay:10.37,2013-04-08 19:15:00,
2013-04-08 12:21:00,44.3,43.0,30.13,SSE,166,10.0,10.0,95,0.00,CLR,,0.04,WeatherDisplay:10.37,2013-04-08 19:21:00,
2013-04-08 12:26:00,44.5,43.2,30.13,SSE,148,3.5,3.5,95,0.00,CLR,,0.04,WeatherDisplay:10.37,2013-04-08 19:26:00,
2013-04-08 12:32:00,45.0,43.4,30.13,SSE,159,8.1,8.1,94,0.00,CLR,,0.04,WeatherDisplay:10.37,2013-04-08 19:32:00,
2013-04-08 12:37:00,44.9,43.3,30.13,South,189,8.1,8.1,94,0.00,CLR,,0.04,WeatherDisplay:10.37,2013-04-08 19:37:00,
2013-04-08 12:42:00,44.7,42.8,30.13,ESE,116,5.8,5.8,93,0.00,CLR,,0.04,WeatherDisplay:10.37,2013-04-08 19:42:00,
2013-04-08 12:47:00,45.2,43.6,30.13,SSE,159,5.8,5.8,94,0.00,CLR,,0.04,WeatherDisplay:10.37,2013-04-08 19:47:00,
2013-04-08 12:52:00,45.6,44.0,30.13,ENE,73,8.1,8.1,94,0.00,CLR,,0.04,WeatherDisplay:10.37,2013-04-08 19:52:00,
2013-04-08 12:57:00,45.4,43.2,30.14,East,82,10.4,10.4,92,0.00,CLR,,0.04,WeatherDisplay:10.37,2013-04-08 19:57:00,
2013-04-08 13:02:00,45.6,43.7,30.14,SSW,194,5.8,5.8,93,0.00,CLR,,0.04,WeatherDisplay:10.37,2013-04-08 20:02:00,
2013-04-08 13:07:00,45.6,43.4,30.14,SSE,165,4.6,4.6,92,0.00,CLR,,0.04,WeatherDisplay:10.37,2013-04-08 20:07:00,
2013-04-08 13:12:00,45.9,44.0,30.14,SSE,167,5.8,5.8,93,0.00,CLR,,0.04,WeatherDisplay:10.37,2013-04-08 20:12:00,
2013-04-08 13:17:00,45.7,43.2,30.14,SSE,153,8.1,8.1,91,0.00,CLR,,0.04,WeatherDisplay:10.37,2013-04-08 20:17:00,
2013-04-08 13:22:00,46.2,44.0,30.14,ENE,62,4.6,4.6,92,0.00,CLR,,0.04,WeatherDisplay:10.37,2013-04-08 20:22:00,
2013-04-08 13:27:00,47.0,44.8,30.14,ENE,75,3.5,3.5,92,0.00,CLR,,0.04,WeatherDisplay:10.37,2013-04-08 20:27:00,
2013-04-08 13:32:00,47.3,44.8,30.15,SE,143,4.0,4.0,91,0.00,CLR,,0.04,WeatherDisplay:10.37,2013-04-08 20:32:00,
2013-04-08 13:37:00,47.2,44.4,30.15,South,171,3.5,3.5,90,0.00,CLR,,0.04,WeatherDisplay:10.37,2013-04-08 20:37:00,
2013-04-08 13:42:00,47.2,44.1,30.15,SSE,150,4.6,4.6,89,0.00,CLR,,0.04,WeatherDisplay:10.37,2013-04-08 20:42:00,
2013-04-08 13:47:00,47.5,45.0,30.15,South,180,3.5,3.5,91,0.00,CLR,,0.04,WeatherDisplay:10.37,2013-04-08 20:47:00,
2013-04-08 13:52:00,47.5,44.4,30.15,SE,133,3.5,3.5,89,0.00,CLR,,0.04,WeatherDisplay:10.37,2013-04-08 20:52:00,
2013-04-08 13:57:00,48.1,45.3,30.15,East,96,2.3,2.3,90,0.00,CLR,,0.04,WeatherDisplay:10.37,2013-04-08 20:57:00,
2013-04-08 14:02:00,48.9,45.2,30.15,SSE,153,3.5,3.5,87,0.00,CLR,,0.04,WeatherDisplay:10.37,2013-04-08 21:02:00,
2013-04-08 14:07:00,49.1,45.7,30.15,ESE,118,3.5,3.5,88,0.00,CLR,,0.04,WeatherDisplay:10.37,2013-04-08 21:07:00,
2013-04-08 14:12:00,49.5,46.1,30.15,ESE,111,1.2,1.2,88,0.00,CLR,,0.04,WeatherDisplay:10.37,2013-04-08 21:12:00,
2013-04-08 14:17:00,49.5,46.1,30.15,ENE,69,1.2,1.2,88,0.00,CLR,,0.04,WeatherDisplay:10.37,2013-04-08 21:17:00,
2013-04-08 14:22:00,49.5,45.8,30.15,SE,146,3.5,3.5,87,0.00,CLR,,0.04,WeatherDisplay:10.37,2013-04-08 21:22:00,
2013-04-08 14:27:00,49.6,45.6,30.15,East,85,2.3,2.3,86,0.00,CLR,,0.04,WeatherDisplay:10.37,2013-04-08 21:27:00,
2013-04-08 14:32:00,50.1,46.1,30.15,ESE,109,2.3,2.3,86,0.00,CLR,,0.04,WeatherDisplay:10.37,2013-04-08 21:32:00,
2013-04-08 14:37:00,50.5,45.2,30.15,SSE,152,1.2,1.2,82,0.00,CLR,,0.04,WeatherDisplay:10.37,2013-04-08 21:37:00,
2013-04-08 14:42:00,50.4,45.7,30.15,SE,144,2.3,2.3,84,0.00,CLR,,0.04,WeatherDisplay:10.37,2013-04-08 21:42:00,
2013-04-08 14:47:00,51.0,46.0,30.15,SE,144,3.5,3.5,83,0.00,CLR,,0.04,WeatherDisplay:10.37,2013-04-08 21:47:00,
2013-04-08 14:52:00,50.8,45.2,30.15,SSE,154,2.3,2.3,81,0.00,CLR,,0.04,WeatherDisplay:10.37,2013-04-08 21:52:00,
2013-04-08 14:57:00,50.2,44.6,30.15,WSW,246,3.5,3.5,81,0.00,CLR,,0.04,WeatherDisplay:10.37,2013-04-08 21:57:00,
2013-04-08 15:03:00,50.1,44.8,30.15,SSW,212,3.5,3.5,82,0.00,CLR,,0.04,WeatherDisplay:10.37,2013-04-08 22:03:00,
2013-04-08 15:08:00,49.9,44.3,30.15,South,177,6.9,6.9,81,0.00,CLR,,0.04,WeatherDisplay:10.37,2013-04-08 22:08:00,
2013-04-08 15:13:00,50.1,44.5,30.15,South,170,6.9,6.9,81,0.00,CLR,,0.04,WeatherDisplay:10.37,2013-04-08 22:13:00,
2013-04-08 15:18:00,49.9,44.6,30.15,WSW,258,3.5,0.0,82,0.00,CLR,,0.04,WeatherDisplay:10.37,2013-04-08 22:18:00,
2013-04-08 15:23:00,50.3,45.0,30.15,SSE,157,3.0,3.0,82,0.00,CLR,,0.04,WeatherDisplay:10.37,2013-04-08 22:23:00,
2013-04-08 15:28:00,50.0,43.7,30.15,SE,142,3.5,3.5,79,0.00,CLR,,0.04,WeatherDisplay:10.37,2013-04-08 22:28:00,
2013-04-08 15:33:00,49.8,44.2,30.15,South,180,1.2,1.2,81,0.00,CLR,,0.04,WeatherDisplay:10.37,2013-04-08 22:33:00,
2013-04-08 15:38:00,50.1,43.8,30.15,South,188,7.0,7.0,79,0.00,CLR,,0.04,WeatherDisplay:10.37,2013-04-08 22:38:00,
2013-04-08 15:43:00,49.9,43.6,30.15,SSE,147,5.0,5.0,79,0.00,CLR,,0.04,WeatherDisplay:10.37,2013-04-08 22:43:00,
2013-04-08 15:48:00,50.5,44.6,30.15,SE,132,4.6,4.6,80,0.00,CLR,,0.04,WeatherDisplay:10.37,2013-04-08 22:48:00,
2013-04-08 15:53:00,51.7,44.7,30.15,South,177,6.0,6.0,77,0.00,CLR,,0.04,WeatherDisplay:10.37,2013-04-08 22:53:00,
2013-04-08 15:58:00,52.1,45.1,30.15,East,98,3.5,3.5,77,0.00,CLR,,0.04,WeatherDisplay:10.37,2013-04-08 22:58:00,
2013-04-08 16:03:00,52.7,45.7,30.15,ESE,113,3.5,3.5,77,0.00,CLR,,0.04,WeatherDisplay:10.37,2013-04-08 23:03:00,
2013-04-08 16:08:00,52.7,44.6,30.14,SW,227,5.8,5.8,74,0.00,CLR,,0.04,WeatherDisplay:10.37,2013-04-08 23:08:00,
2013-04-08 16:13:00,52.3,44.6,30.15,SSW,208,5.8,5.8,75,0.00,CLR,,0.04,WeatherDisplay:10.37,2013-04-08 23:13:00,
2013-04-08 16:18:00,52.2,44.5,30.15,SSE,163,8.1,8.1,75,0.00,CLR,,0.04,WeatherDisplay:10.37,2013-04-08 23:18:00,
2013-04-08 16:23:00,52.1,43.0,30.15,WSW,256,1.2,1.2,71,0.00,CLR,,0.04,WeatherDisplay:10.37,2013-04-08 23:23:00,
2013-04-08 16:28:00,52.5,43.0,30.15,South,191,3.5,3.5,70,1.11,RA,,1.15,WeatherDisplay:10.37,2013-04-08 23:28:00,
2013-04-08 16:33:00,52.1,42.2,30.15,South,169,3.5,3.5,69,1.11,RA,,1.15,WeatherDisplay:10.37,2013-04-08 23:33:00,
2013-04-08 16:38:00,52.5,43.4,30.15,SW,223,6.9,6.9,71,1.11,,,1.15,WeatherDisplay:10.37,2013-04-08 23:38:00,
2013-04-08 16:43:00,51.6,42.5,30.16,WNW,282,3.5,3.5,71,1.11,RA,,1.15,WeatherDisplay:10.37,2013-04-08 23:43:00,
2013-04-08 16:48:00,51.0,43.4,30.16,South,183,3.5,3.5,75,1.08,RA,,1.12,WeatherDisplay:10.37,2013-04-08 23:48:00,
2013-04-08 16:53:00,51.6,43.9,30.16,SSE,148,4.6,4.6,75,1.06,RA,,1.10,WeatherDisplay:10.37,2013-04-08 23:53:00,
2013-04-08 16:58:00,51.4,43.0,30.16,South,178,5.0,5.0,73,1.06,RA,,1.10,WeatherDisplay:10.37,2013-04-08 23:58:00,
2013-04-08 17:03:00,51.4,43.0,30.16,South,186,5.8,5.8,73,1.06,RA,,1.10,WeatherDisplay:10.37,2013-04-09 00:03:00,
2013-04-08 17:08:00,51.0,43.7,30.16,South,178,5.8,5.8,76,1.06,RA,,1.10,WeatherDisplay:10.37,2013-04-09 00:08:00,
2013-04-08 17:14:00,51.0,44.0,30.16,ESE,119,6.0,6.0,77,1.06,RA,,1.10,WeatherDisplay:10.37,2013-04-09 00:14:00,
2013-04-08 17:19:00,50.6,43.7,30.16,SSE,160,3.5,3.5,77,1.06,CLR,,1.10,WeatherDisplay:10.37,2013-04-09 00:19:00,
2013-04-08 17:24:00,50.5,43.9,30.16,SSE,150,4.6,4.6,78,1.06,CLR,,1.10,WeatherDisplay:10.37,2013-04-09 00:24:00,
2013-04-08 17:29:00,50.5,44.2,30.16,SSE,167,3.0,3.0,79,1.06,CLR,,1.10,WeatherDisplay:10.37,2013-04-09 00:29:00,
2013-04-08 17:34:00,50.7,44.4,30.17,SE,130,3.5,3.5,79,0.01,CLR,,1.10,WeatherDisplay:10.37,2013-04-09 00:34:00,
2013-04-08 17:39:00,50.8,44.5,30.17,South,171,5.8,5.8,79,0.00,CLR,,1.10,WeatherDisplay:10.37,2013-04-09 00:39:00,
2013-04-08 17:44:00,51.0,44.4,30.16,South,184,3.5,3.5,78,0.00,CLR,,1.10,WeatherDisplay:10.37,2013-04-09 00:44:00,
2013-04-08 17:49:00,51.0,44.4,30.17,SSE,153,3.5,3.5,78,0.00,CLR,,1.10,WeatherDisplay:10.37,2013-04-09 00:49:00,
2013-04-08 17:54:00,51.1,44.5,30.17,East,92,3.5,3.5,78,0.00,CLR,,1.10,WeatherDisplay:10.37,2013-04-09 00:54:00,
2013-04-08 17:59:00,51.3,44.0,30.17,South,176,6.9,6.9,76,0.00,CLR,,1.10,WeatherDisplay:10.37,2013-04-09 00:59:00,
2013-04-08 18:04:00,51.2,43.2,30.17,SSE,165,5.8,5.8,74,0.00,CLR,,1.10,WeatherDisplay:10.37,2013-04-09 01:04:00,
2013-04-08 18:09:00,51.0,43.0,30.17,SW,226,5.8,5.8,74,0.00,CLR,,1.10,WeatherDisplay:10.37,2013-04-09 01:09:00,
2013-04-08 18:14:00,50.9,43.3,30.17,South,170,3.5,3.5,75,0.00,CLR,,1.10,WeatherDisplay:10.37,2013-04-09 01:14:00,
2013-04-08 18:20:00,50.7,42.7,30.17,SSW,202,3.5,3.5,74,0.00,CLR,,1.10,WeatherDisplay:10.37,2013-04-09 01:20:00,
2013-04-08 18:25:00,50.6,43.3,30.18,SSW,205,1.2,1.2,76,0.00,CLR,,1.10,WeatherDisplay:10.37,2013-04-09 01:25:00,
2013-04-08 18:30:00,50.4,43.1,30.18,SSE,157,2.3,0.0,76,0.00,CLR,,1.10,WeatherDisplay:10.37,2013-04-09 01:30:00,
2013-04-08 18:35:00,50.2,42.9,30.18,SSE,161,3.5,3.5,76,0.00,CLR,,1.10,WeatherDisplay:10.37,2013-04-09 01:35:00,
2013-04-08 18:40:00,50.0,43.1,30.18,South,169,3.5,3.5,77,0.00,CLR,,1.10,WeatherDisplay:10.37,2013-04-09 01:40:00,
2013-04-08 18:45:00,49.9,43.0,30.18,SSE,166,1.2,0.0,77,0.00,CLR,,1.10,WeatherDisplay:10.37,2013-04-09 01:45:00,
2013-04-08 18:50:00,49.7,43.5,30.18,SSE,152,2.0,7.0,79,0.00,CLR,,1.10,WeatherDisplay:10.37,2013-04-09 01:50:00,
2013-04-08 18:55:00,49.4,43.2,30.18,SSE,156,3.0,5.0,79,0.00,CLR,,1.10,WeatherDisplay:10.37,2013-04-09 01:55:00,
2013-04-08 19:00:00,49.1,43.2,30.18,SE,142,4.6,4.6,80,0.00,CLR,,1.10,WeatherDisplay:10.37,2013-04-09 02:00:00,
2013-04-08 19:05:00,48.8,43.3,30.18,SSE,162,1.0,7.0,81,0.00,CLR,,1.10,WeatherDisplay:10.37,2013-04-09 02:05:00,
2013-04-08 19:10:00,48.6,43.3,30.19,South,177,1.0,7.0,82,0.00,CLR,,1.10,WeatherDisplay:10.37,2013-04-09 02:10:00,
2013-04-08 19:15:00,48.3,43.0,30.19,South,175,2.0,5.0,82,0.00,CLR,,1.10,WeatherDisplay:10.37,2013-04-09 02:15:00,
2013-04-08 19:20:00,48.1,43.2,30.19,SSE,150,3.5,3.5,83,0.00,CLR,,1.10,WeatherDisplay:10.37,2013-04-09 02:20:00,
2013-04-08 19:25:00,47.9,43.0,30.19,SSE,154,6.9,6.9,83,0.00,CLR,,1.10,WeatherDisplay:10.37,2013-04-09 02:25:00,
2013-04-08 19:30:00,47.6,43.0,30.19,South,184,4.0,4.0,84,0.00,CLR,,1.10,WeatherDisplay:10.37,2013-04-09 02:30:00,
2013-04-08 19:35:00,47.5,42.9,30.19,SSW,198,3.5,3.5,84,0.00,CLR,,1.10,WeatherDisplay:10.37,2013-04-09 02:35:00,
2013-04-08 19:40:00,47.4,43.1,30.19,South,169,3.5,3.5,85,0.00,CLR,,1.10,WeatherDisplay:10.37,2013-04-09 02:40:00,
2013-04-08 19:45:00,47.2,43.2,30.19,SSE,167,1.2,1.2,86,0.00,CLR,,1.10,WeatherDisplay:10.37,2013-04-09 02:45:00,
2013-04-08 19:50:00,47.0,43.0,30.19,SE,145,3.5,3.5,86,0.00,CLR,,1.10,WeatherDisplay:10.37,2013-04-09 02:50:00,
2013-04-08 19:55:00,46.7,43.0,30.19,SSE,165,2.3,2.3,87,0.00,CLR,,1.10,WeatherDisplay:10.37,2013-04-09 02:55:00,
2013-04-08 20:00:00,46.5,42.8,30.19,SSE,161,2.3,2.3,87,0.00,CLR,,1.10,WeatherDisplay:10.37,2013-04-09 03:00:00,
2013-04-08 20:05:00,46.5,42.8,30.20,South,186,5.8,5.8,87,0.00,CLR,,1.10,WeatherDisplay:10.37,2013-04-09 03:05:00,
2013-04-08 20:10:00,46.3,42.6,30.20,South,172,2.3,2.3,87,0.00,CLR,,1.10,WeatherDisplay:10.37,2013-04-09 03:10:00,
2013-04-08 20:15:00,46.1,42.7,30.20,South,174,1.2,1.2,88,0.00,CLR,,1.10,WeatherDisplay:10.37,2013-04-09 03:15:00,
2013-04-08 20:20:00,45.8,42.4,30.20,South,175,4.0,4.0,88,0.00,CLR,,1.10,WeatherDisplay:10.37,2013-04-09 03:20:00,
2013-04-08 20:25:00,45.9,42.2,30.20,SSE,153,4.6,4.6,87,0.00,CLR,,1.10,WeatherDisplay:10.37,2013-04-09 03:25:00,
2013-04-08 20:30:00,45.9,42.2,30.20,SSE,168,3.5,3.5,87,0.00,CLR,,1.10,WeatherDisplay:10.37,2013-04-09 03:30:00,
2013-04-08 20:35:00,45.9,42.5,30.21,South,171,1.0,1.0,88,0.00,CLR,,1.10,WeatherDisplay:10.37,2013-04-09 03:35:00,
2013-04-08 20:40:00,45.6,42.3,30.21,South,185,3.5,3.5,88,0.00,CLR,,1.10,WeatherDisplay:10.37,2013-04-09 03:40:00,
2013-04-08 20:45:00,45.6,42.3,30.21,South,169,5.0,5.0,88,0.00,CLR,,1.10,WeatherDisplay:10.37,2013-04-09 03:45:00,
2013-04-08 20:50:00,45.4,42.1,30.21,South,182,3.5,3.5,88,0.00,CLR,,1.10,WeatherDisplay:10.37,2013-04-09 03:50:00,
2013-04-08 20:55:00,45.3,42.2,30.22,South,184,2.3,0.0,89,0.00,CLR,,1.10,WeatherDisplay:10.37,2013-04-09 03:55:00,
2013-04-08 21:00:00,45.2,42.2,30.22,South,173,1.0,4.0,89,0.00,CLR,,1.10,WeatherDisplay:10.37,2013-04-09 04:00:00,
2013-04-08 21:05:00,45.0,42.0,30.22,South,186,3.5,3.5,89,0.00,CLR,,1.10,WeatherDisplay:10.37,2013-04-09 04:05:00,
2013-04-08 21:10:00,45.0,42.0,30.22,South,176,3.5,3.5,89,0.00,CLR,,1.10,WeatherDisplay:10.37,2013-04-09 04:10:00,
2013-04-08 21:15:00,45.0,42.0,30.22,South,173,1.2,1.2,89,0.00,CLR,,1.10,WeatherDisplay:10.37,2013-04-09 04:15:00,
2013-04-08 21:20:00,45.0,42.0,30.22,SSE,159,0.0,0.1,89,0.00,CLR,,1.10,WeatherDisplay:10.37,2013-04-09 04:20:00,
2013-04-08 21:25:00,44.6,41.6,30.23,South,169,3.0,3.0,89,0.00,CLR,,1.10,WeatherDisplay:10.37,2013-04-09 04:25:00,
2013-04-08 21:30:00,44.2,41.5,30.23,South,175,3.5,3.5,90,0.00,CLR,,1.10,WeatherDisplay:10.37,2013-04-09 04:30:00,
2013-04-08 21:35:00,44.3,41.6,30.23,South,187,3.0,3.0,90,0.00,CLR,,1.10,WeatherDisplay:10.37,2013-04-09 04:35:00,
2013-04-08 21:40:00,44.2,41.7,30.24,SSE,161,0.0,0.1,91,0.00,CLR,,1.10,WeatherDisplay:10.37,2013-04-09 04:40:00,
2013-04-08 21:45:00,44.2,41.7,30.24,South,177,2.3,2.3,91,0.00,CLR,,1.10,WeatherDisplay:10.37,2013-04-09 04:45:00,
2013-04-08 21:51:00,44.3,41.6,30.24,SSE,155,1.2,1.2,90,0.00,CLR,,1.10,WeatherDisplay:10.37,2013-04-09 04:51:00,
2013-04-08 21:56:00,44.2,41.7,30.24,South,171,1.2,1.2,91,0.00,CLR,,1.10,WeatherDisplay:10.37,2013-04-09 04:56:00,
2013-04-08 22:01:00,44.1,41.6,30.24,South,171,1.0,1.0,91,0.00,CLR,,1.10,WeatherDisplay:10.37,2013-04-09 05:01:00,
2013-04-08 22:06:00,43.8,41.3,30.24,SSE,163,0.0,0.0,91,0.00,CLR,,1.10,WeatherDisplay:10.37,2013-04-09 05:06:00,
2013-04-08 22:11:00,43.7,41.5,30.24,SSE,166,1.0,1.0,92,0.00,CLR,,1.10,WeatherDisplay:10.37,2013-04-09 05:11:00,
2013-04-08 22:16:00,43.8,41.6,30.24,SSE,160,2.3,0.0,92,0.00,CLR,,1.10,WeatherDisplay:10.37,2013-04-09 05:16:00,
2013-04-08 22:21:00,43.7,41.5,30.24,SSE,159,0.0,0.0,92,0.00,CLR,,1.10,WeatherDisplay:10.37,2013-04-09 05:21:00,
2013-04-08 22:27:00,43.7,41.5,30.24,South,182,1.2,1.2,92,0.00,CLR,,1.10,WeatherDisplay:10.37,2013-04-09 05:27:00,
2013-04-08 22:32:00,43.7,41.5,30.24,SE,146,3.5,3.5,92,0.00,CLR,,1.10,WeatherDisplay:10.37,2013-04-09 05:32:00,
2013-04-08 22:37:00,43.5,41.3,30.24,SSE,158,1.2,1.5,92,0.00,CLR,,1.10,WeatherDisplay:10.37,2013-04-09 05:37:00,
2013-04-08 22:42:00,43.2,41.0,30.24,SSE,158,0.0,0.0,92,0.00,CLR,,1.10,WeatherDisplay:10.37,2013-04-09 05:42:00,
2013-04-08 22:47:00,43.0,41.1,30.24,SSE,158,1.0,1.0,93,0.00,CLR,,1.10,WeatherDisplay:10.37,2013-04-09 05:47:00,
2013-04-08 22:52:00,42.9,41.0,30.24,South,173,0.0,0.0,93,0.00,CLR,,1.10,WeatherDisplay:10.37,2013-04-09 05:52:00,
2013-04-08 22:57:00,43.1,41.2,30.24,South,184,2.3,2.3,93,0.00,CLR,,1.10,WeatherDisplay:10.37,2013-04-09 05:57:00,
2013-04-08 23:02:00,43.2,41.3,30.24,South,180,1.0,0.0,93,0.00,CLR,,1.10,WeatherDisplay:10.37,2013-04-09 06:02:00,
2013-04-08 23:07:00,43.4,41.5,30.24,SSE,154,3.5,0.0,93,0.00,CLR,,1.10,WeatherDisplay:10.37,2013-04-09 06:07:00,
2013-04-08 23:12:00,43.4,41.5,30.24,South,188,2.3,0.0,93,0.00,CLR,,1.10,WeatherDisplay:10.37,2013-04-09 06:12:00,
2013-04-08 23:17:00,43.1,41.2,30.24,South,173,0.0,0.0,93,0.00,CLR,,1.10,WeatherDisplay:10.37,2013-04-09 06:17:00,
2013-04-08 23:22:00,42.7,40.8,30.24,SSW,195,2.0,2.0,93,0.00,CLR,,1.10,WeatherDisplay:10.37,2013-04-09 06:22:00,
2013-04-08 23:27:00,43.0,41.4,30.24,South,188,3.5,3.5,94,0.00,CLR,,1.10,WeatherDisplay:10.37,2013-04-09 06:27:00,
2013-04-08 23:32:00,43.4,41.5,30.24,South,174,1.2,1.2,93,0.00,CLR,,1.10,WeatherDisplay:10.37,2013-04-09 06:32:00,
2013-04-08 23:37:00,43.4,41.5,30.24,South,176,3.5,3.5,93,0.00,CLR,,1.10,WeatherDisplay:10.37,2013-04-09 06:37:00,
2013-04-08 23:42:00,43.7,41.5,30.24,SSE,158,2.3,2.3,92,0.00,CLR,,1.10,WeatherDisplay:10.37,2013-04-09 06:42:00,
2013-04-08 23:47:00,43.3,41.1,30.24,SSE,161,2.3,2.3,92,0.00,CLR,,1.10,WeatherDisplay:10.37,2013-04-09 06:47:00,
2013-04-08 23:52:00,43.2,41.0,30.24,SSW,194,2.0,2.0,92,0.00,CLR,,1.10,WeatherDisplay:10.37,2013-04-09 06:52:00,
2013-04-08 23:57:00,43.3,41.1,30.24,South,180,0.0,0.0,92,0.00,CLR,,1.10,WeatherDisplay:10.37,2013-04-09 06:57:00,